Time;durP1;ratioP1;P1;durP2;ratioP2;P2;SDS_P1;SDS_P2;PMS_P1;PMS_P2;Temp;Humidity;BMP_temperature;BMP_pressure;BME280_temperature;BME280_humidity;BME280_pressure;Samples;Min_cycle;Max_cycle;Signal;HPM_P1;HPM_P2
2022/06/01 00:02:25;;;;;;;4.70;4.50;;;;;;;9.78;100.00;100895.81;6054700;23;20452;-66
2022/06/01 00:04:51;;;;;;;4.43;4.22;;;;;;;9.76;100.00;100886.28;6059960;23;20025;-66
2022/06/01 00:07:19;;;;;;;4.95;4.65;;;;;;;9.74;100.00;100891.63;6073179;23;20070;-66
2022/06/01 00:09:45;;;;;;;4.47;4.28;;;;;;;9.58;100.00;100875.75;6050524;23;20027;-66
2022/06/01 00:12:12;;;;;;;4.72;4.53;;;;;;;9.64;100.00;100884.22;6057295;23;20030;-66
2022/06/01 00:14:38;;;;;;;4.30;4.10;;;;;;;9.43;100.00;100860.69;6087119;23;20050;-66
2022/06/01 00:17:05;;;;;;;5.50;5.30;;;;;;;9.54;100.00;100879.41;6078352;23;20205;-65
2022/06/01 00:19:31;;;;;;;4.45;4.25;;;;;;;9.62;100.00;100891.31;6049824;23;20477;-66
2022/06/01 00:22:12;;;;;;;5.45;5.20;;;;;;;9.64;100.00;100884.22;6077691;23;20205;-66
2022/06/01 00:24:43;;;;;;;4.80;4.50;;;;;;;9.49;100.00;100857.81;6053324;23;20053;-65
2022/06/01 00:27:11;;;;;;;5.32;5.03;;;;;;;9.65;100.00;100885.94;6070909;23;20489;-66
2022/06/01 00:29:38;;;;;;;4.60;4.40;;;;;;;9.65;100.00;100909.53;6047873;23;20760;-66
2022/06/01 00:32:07;;;;;;;6.55;6.25;;;;;;;9.63;100.00;100883.38;6070342;23;20033;-67
2022/06/01 00:34:34;;;;;;;4.25;4.05;;;;;;;9.60;100.00;100883.50;6051832;23;20022;-66
2022/06/01 00:37:00;;;;;;;6.05;5.75;;;;;;;9.58;100.00;100886.22;6073386;23;20026;-66
2022/06/01 00:39:27;;;;;;;4.55;4.35;;;;;;;9.25;100.00;100837.94;6083304;23;20159;-66
2022/06/01 00:41:53;;;;;;;5.32;5.07;;;;;;;9.51;100.00;100887.41;6050638;23;20479;-66
2022/06/01 00:44:20;;;;;;;4.20;4.00;;;;;;;9.46;100.00;100892.00;6081714;23;20047;-66
2022/06/01 00:46:46;;;;;;;4.30;4.10;;;;;;;9.41;100.00;100896.59;6047627;23;20014;-66
2022/06/01 00:49:20;;;;;;;4.30;4.10;;;;;;;8.97;100.00;100847.00;6079603;23;20054;-65
2022/06/01 00:51:48;;;;;;;4.85;4.65;;;;;;;9.28;100.00;100900.66;6048974;23;20018;-64
2022/06/01 00:54:15;;;;;;;4.85;4.65;;;;;;;8.96;100.00;100861.00;6078261;23;20025;-65
2022/06/01 00:56:46;;;;;;;4.30;4.10;;;;;;;9.14;100.00;100896.00;6041734;23;20086;-65
2022/06/01 00:59:16;;;;;;;4.60;4.40;;;;;;;8.82;100.00;100848.53;6075905;23;20049;-66
2022/06/01 01:01:43;;;;;;;4.20;4.00;;;;;;;8.82;100.00;100860.75;6038873;23;20054;-66
2022/06/01 01:04:10;;;;;;;4.70;4.50;;;;;;;8.91;100.00;100891.78;6062497;23;20260;-66
2022/06/01 01:06:39;;;;;;;4.25;4.05;;;;;;;8.93;100.00;100901.25;6049013;23;20072;-66
2022/06/01 01:09:08;;;;;;;5.50;5.20;;;;;;;8.62;100.00;100862.44;6075978;23;20205;-66
2022/06/01 01:11:45;;;;;;;4.38;4.18;;;;;;;7.69;100.00;100713.66;6055307;23;20471;-65
2022/06/01 01:14:14;;;;;;;4.18;3.97;;;;;;;8.61;100.00;100868.56;6071757;23;20024;-66
2022/06/01 01:16:40;;;;;;;4.47;4.28;;;;;;;8.61;100.00;100865.13;6049967;23;20008;-67
2022/06/01 01:19:16;;;;;;;5.57;5.38;;;;;;;8.65;100.00;100877.16;6074959;23;20518;-66
2022/06/01 01:21:56;;;;;;;4.15;3.95;;;;;;;8.79;100.00;100901.81;6044381;23;20013;-66
2022/06/01 01:24:23;;;;;;;4.20;4.00;;;;;;;8.75;100.00;100895.00;6058253;23;20051;-66
2022/06/01 01:26:50;;;;;;;4.47;4.28;;;;;;;7.58;100.00;100740.22;6047523;23;20440;-65
2022/06/01 01:29:47;;;;;;;4.30;4.10;;;;;;;8.50;100.00;100860.31;6078668;23;20038;-69
2022/06/01 01:32:14;;;;;;;4.28;4.07;;;;;;;8.49;100.00;100864.69;6041894;23;20175;-66
2022/06/01 01:34:44;;;;;;;4.20;4.00;;;;;;;8.34;100.00;100839.16;6084229;23;20114;-66
2022/06/01 01:37:20;;;;;;;4.78;4.57;;;;;;;8.47;100.00;100878.75;6041782;23;20026;-67
2022/06/01 01:39:46;;;;;;;4.30;4.10;;;;;;;8.59;100.00;100891.34;6081010;23;20404;-66
2022/06/01 01:42:13;;;;;;;4.55;4.35;;;;;;;8.09;100.00;100823.59;6050051;23;20860;-65
2022/06/01 01:44:57;;;;;;;4.10;3.90;;;;;;;8.09;100.00;100840.13;6080794;23;20013;-65
2022/06/01 01:47:24;;;;;;;4.28;4.07;;;;;;;7.82;100.00;100817.66;6058079;23;20074;-66
2022/06/01 01:49:50;;;;;;;4.28;4.07;;;;;;;7.90;100.00;100868.75;6043672;23;20010;-64
2022/06/01 01:52:18;;;;;;;4.28;4.07;;;;;;;8.11;100.00;100887.97;6079464;23;20024;-65
2022/06/01 01:54:55;;;;;;;4.20;4.00;;;;;;;7.70;100.00;100850.38;6055028;23;20356;-65
2022/06/01 01:57:31;;;;;;;4.40;4.20;;;;;;;7.78;100.00;100861.38;6061946;23;20059;-66
2022/06/01 02:00:20;;;;;;;5.65;5.45;;;;;;;7.97;100.00;100893.72;6050746;23;20016;-66
2022/06/01 02:03:05;;;;;;;4.10;3.90;;;;;;;7.94;100.00;100887.78;6056805;23;20046;-66
2022/06/01 02:06:07;;;;;;;4.07;3.88;;;;;;;7.97;100.00;100887.66;6035915;23;20274;-68
2022/06/01 02:08:41;;;;;;;4.38;4.18;;;;;;;7.94;100.00;100872.94;6066227;23;20026;-68
2022/06/01 02:14:30;;;;;;;4.18;3.97;;;;;;;8.03;100.00;100878.72;6047837;23;20042;-67
2022/06/01 02:17:08;;;;;;;5.75;5.45;;;;;;;8.03;100.00;100882.19;6081471;23;20064;-67
2022/06/01 02:20:02;;;;;;;4.22;4.03;;;;;;;7.91;100.00;100859.97;6060644;23;20097;-67
2022/06/01 02:22:28;;;;;;;4.13;3.92;;;;;;;7.85;100.00;100860.22;6070769;23;20581;-63
2022/06/01 02:24:55;;;;;;;5.10;4.90;;;;;;;7.89;100.00;100874.88;6040078;23;20078;-65
2022/06/01 02:27:23;;;;;;;4.47;4.28;;;;;;;7.94;100.00;100880.78;6078772;23;20026;-65
2022/06/01 02:29:57;;;;;;;4.55;4.35;;;;;;;7.98;100.00;100891.97;6054153;23;20045;-65
2022/06/01 02:32:26;;;;;;;4.38;4.18;;;;;;;7.98;100.00;100898.06;6049585;23;20391;-64
2022/06/01 02:34:56;;;;;;;4.15;4.00;;;;;;;7.14;100.00;100771.47;6055537;23;20026;-65
2022/06/01 02:37:25;;;;;;;3.90;3.80;;;;;;;6.85;100.00;100706.44;6078861;23;20085;-65
2022/06/01 02:39:56;;;;;;;4.25;4.05;;;;;;;7.98;100.00;100902.44;6057473;23;20020;-63
2022/06/01 02:42:26;;;;;;;4.00;3.80;;;;;;;7.72;100.00;100849.41;6083766;23;20032;-67
2022/06/01 02:45:00;;;;;;;4.32;4.13;;;;;;;7.78;100.00;100864.00;6049966;23;20081;-64
2022/06/01 02:47:32;;;;;;;4.07;3.88;;;;;;;8.06;100.00;100912.56;6054630;23;20092;-66
2022/06/01 02:49:59;;;;;;;5.83;5.60;;;;;;;7.99;100.00;100899.72;6073031;23;20093;-66
2022/06/01 02:52:27;;;;;;;4.45;4.25;;;;;;;7.67;100.00;100850.47;6048685;23;20031;-65
2022/06/01 02:54:54;;;;;;;4.13;3.95;;;;;;;7.65;100.00;100853.13;6085118;23;20016;-67
2022/06/01 02:57:21;;;;;;;4.05;3.85;;;;;;;8.01;100.00;100911.91;6053088;23;20483;-67
2022/06/01 02:59:47;;;;;;;4.35;4.15;;;;;;;6.74;100.00;100718.13;6088489;23;20010;-67
2022/06/01 03:02:14;;;;;;;4.03;3.85;;;;;;;7.96;100.00;100917.31;6053477;23;20026;-65
2022/06/01 03:04:42;;;;;;;3.80;3.70;;;;;;;7.95;100.00;100923.44;6078253;23;20018;-65
2022/06/01 03:07:10;;;;;;;3.80;3.70;;;;;;;7.94;100.00;100912.16;6050441;23;20086;-66
2022/06/01 03:09:37;;;;;;;3.92;3.80;;;;;;;7.83;100.00;100906.47;6075845;23;20388;-66
2022/06/01 03:12:05;;;;;;;6.03;5.75;;;;;;;7.96;100.00;100912.94;6061563;23;20071;-65
2022/06/01 03:14:33;;;;;;;3.80;3.70;;;;;;;7.96;100.00;100925.16;6084506;23;20056;-65
2022/06/01 03:17:00;;;;;;;5.18;4.97;;;;;;;7.95;100.00;100926.06;6026285;23;20069;-66
2022/06/01 03:19:26;;;;;;;4.10;3.90;;;;;;;7.94;100.00;100924.38;6037935;23;20090;-65
2022/06/01 03:21:53;;;;;;;4.00;3.85;;;;;;;7.92;100.00;100931.41;6078487;23;20040;-65
2022/06/01 03:24:20;;;;;;;4.32;4.13;;;;;;;7.91;100.00;100930.53;6080247;23;20033;-65
2022/06/01 03:26:46;;;;;;;4.10;3.90;;;;;;;7.94;100.00;100929.59;6054424;23;20017;-66
2022/06/01 03:29:18;;;;;;;4.07;3.88;;;;;;;7.93;100.00;100935.72;6083076;23;20033;-66
2022/06/01 03:31:44;;;;;;;3.92;3.78;;;;;;;7.91;100.00;100933.16;6058187;23;20414;-66
2022/06/01 03:34:11;;;;;;;4.30;4.10;;;;;;;7.91;100.00;100935.75;6079296;23;20767;-65
2022/06/01 03:36:37;;;;;;;3.88;3.75;;;;;;;7.84;100.00;100921.25;6055632;23;20284;-66
2022/06/01 03:39:04;;;;;;;5.57;5.38;;;;;;;7.75;100.00;100906.75;6078022;23;20032;-66
2022/06/01 03:41:30;;;;;;;4.10;3.90;;;;;;;7.98;100.00;100952.09;6051349;23;20080;-66
2022/06/01 03:46:42;;;;;;;3.92;3.72;;;;;;;7.70;100.00;100884.34;6050098;23;20013;-65
2022/06/01 03:49:08;;;;;;;6.20;5.90;;;;;;;8.11;100.00;100940.25;6079578;23;20049;-68
2022/06/01 03:51:36;;;;;;;4.00;3.80;;;;;;;8.17;100.00;100936.53;6057515;23;20021;-71
2022/06/01 03:54:03;;;;;;;5.07;4.88;;;;;;;8.18;100.00;100931.25;6077998;23;20332;-65
2022/06/01 03:56:30;;;;;;;3.85;3.75;;;;;;;8.33;100.00;100942.88;6057879;23;20034;-70
2022/06/01 03:58:57;;;;;;;5.07;4.88;;;;;;;8.37;100.00;100941.00;6014848;23;20026;-68
2022/06/01 04:01:23;;;;;;;9.82;9.38;;;;;;;8.25;100.00;100907.50;6045166;23;20089;-69
2022/06/01 04:03:50;;;;;;;3.78;3.67;;;;;;;8.06;100.00;100873.34;5972119;23;20475;-70
2022/06/01 04:06:16;;;;;;;4.10;3.90;;;;;;;8.57;100.00;100951.56;6037524;23;20023;-70
2022/06/01 04:08:43;;;;;;;4.00;3.80;;;;;;;8.48;100.00;100883.94;6059061;23;20062;-66
2022/06/01 04:11:09;;;;;;;4.95;4.75;;;;;;;9.30;100.00;100949.44;6093098;23;20262;-65
2022/06/01 04:13:36;;;;;;;4.20;4.00;;;;;;;9.66;100.00;100945.28;6052833;23;20439;-68
2022/06/01 04:16:02;;;;;;;5.20;5.00;;;;;;;10.15;100.00;100945.69;6085781;23;20018;-64
2022/06/01 04:18:45;;;;;;;4.13;3.92;;;;;;;10.86;95.81;100952.81;6050267;23;20017;-65
2022/06/01 04:21:12;;;;;;;4.50;4.30;;;;;;;11.03;90.19;100949.38;6073428;23;20026;-65
2022/06/01 04:23:38;;;;;;;4.20;4.00;;;;;;;11.71;88.58;100920.47;6062916;23;20190;-65
2022/06/01 04:26:05;;;;;;;6.00;5.70;;;;;;;11.98;83.68;100932.13;6082772;23;20022;-70
2022/06/01 04:28:31;;;;;;;4.28;4.07;;;;;;;12.47;82.10;100944.38;6051410;23;20178;-70
2022/06/01 04:30:58;;;;;;;5.93;5.65;;;;;;;13.17;80.44;100959.72;6077722;23;20026;-68
2022/06/01 04:33:26;;;;;;;4.90;4.70;;;;;;;13.87;78.86;100961.69;6070268;23;20024;-65
2022/06/01 04:35:53;;;;;;;4.60;4.40;;;;;;;13.78;72.71;100965.75;6056234;23;20337;-71
2022/06/01 04:38:20;;;;;;;5.05;4.85;;;;;;;14.04;71.39;100969.41;6053287;23;20030;-65
2022/06/01 04:40:48;;;;;;;4.95;4.75;;;;;;;14.74;71.34;100966.72;6084505;23;20045;-65
2022/06/01 04:43:21;;;;;;;4.72;4.53;;;;;;;14.97;69.72;100937.94;6050421;23;20034;-66
2022/06/01 04:45:53;;;;;;;5.43;5.13;;;;;;;15.01;67.72;100967.66;6080984;23;20030;-65
2022/06/01 04:48:20;;;;;;;4.80;4.60;;;;;;;15.60;68.09;100967.22;6056824;23;20019;-65
2022/06/01 04:50:46;;;;;;;5.13;4.93;;;;;;;15.70;64.82;100934.69;6082087;23;20032;-66
2022/06/01 04:53:14;;;;;;;5.20;5.00;;;;;;;15.64;64.18;100966.88;6040661;23;20025;-66
2022/06/01 04:55:42;;;;;;;4.70;4.50;;;;;;;15.84;61.99;100956.75;6087523;23;20032;-66
2022/06/01 04:58:09;;;;;;;6.28;5.97;;;;;;;16.16;64.41;100970.34;6048004;23;20074;-65
2022/06/01 05:00:37;;;;;;;5.30;5.10;;;;;;;16.82;62.09;100957.63;6080012;23;20057;-66
2022/06/01 05:03:04;;;;;;;6.20;5.90;;;;;;;17.25;61.04;100953.53;6077773;23;20030;-66
2022/06/01 05:05:30;;;;;;;5.57;5.28;;;;;;;16.97;58.25;100950.31;6063039;23;20464;-65
2022/06/01 05:07:57;;;;;;;6.45;6.05;;;;;;;17.50;59.40;100960.44;6083297;23;20010;-66
2022/06/01 05:10:23;;;;;;;5.30;5.10;;;;;;;17.88;57.63;100962.81;6082723;23;20021;-66
2022/06/01 05:12:50;;;;;;;5.25;5.05;;;;;;;17.59;57.18;100967.72;6056173;23;20448;-65
2022/06/01 05:15:17;;;;;;;5.57;5.28;;;;;;;17.09;56.96;100952.03;6070993;23;20049;-66
2022/06/01 05:17:43;;;;;;;5.80;5.40;;;;;;;16.57;56.47;100949.75;6050214;23;20019;-66
2022/06/01 05:20:10;;;;;;;6.78;6.47;;;;;;;16.73;58.84;100906.09;6063592;23;20029;-66
2022/06/01 05:22:37;;;;;;;5.20;5.00;;;;;;;16.80;58.65;100948.91;6072910;23;20040;-66
2022/06/01 05:25:04;;;;;;;5.28;5.07;;;;;;;17.00;57.48;100952.75;6053475;23;20089;-65
2022/06/01 05:27:30;;;;;;;5.20;5.00;;;;;;;17.22;58.09;100932.53;6051739;23;20093;-67
2022/06/01 05:29:57;;;;;;;7.05;6.75;;;;;;;17.83;56.34;100956.16;6075000;23;20042;-66
2022/06/01 05:32:24;;;;;;;5.70;5.40;;;;;;;17.43;57.73;100922.94;6051119;23;20054;-66
2022/06/01 05:34:50;;;;;;;5.50;5.30;;;;;;;18.21;55.01;100955.78;6050620;23;20443;-66
2022/06/01 05:37:17;;;;;;;5.75;5.45;;;;;;;19.01;54.63;100959.91;6072172;23;20022;-66
2022/06/01 05:39:43;;;;;;;5.45;5.25;;;;;;;19.36;52.66;100932.13;6052553;23;20098;-66
2022/06/01 05:42:11;;;;;;;7.30;6.75;;;;;;;19.77;51.60;100962.38;6041078;23;20259;-66
2022/06/01 05:44:37;;;;;;;5.85;5.55;;;;;;;18.26;51.69;100969.56;6051114;23;20147;-66
2022/06/01 05:47:04;;;;;;;6.80;6.50;;;;;;;18.96;51.66;100955.94;6067866;23;20030;-66
2022/06/01 05:49:31;;;;;;;6.18;5.82;;;;;;;19.13;50.33;100968.69;6053475;23;20040;-66
2022/06/01 05:51:58;;;;;;;7.10;6.75;;;;;;;18.90;52.04;100952.84;6070244;23;20013;-66
2022/06/01 05:54:25;;;;;;;6.00;5.60;;;;;;;18.76;52.44;100965.53;6045521;23;20018;-66
2022/06/01 05:56:51;;;;;;;5.82;5.53;;;;;;;18.95;50.66;100949.78;6069872;23;20036;-66
2022/06/01 05:59:18;;;;;;;5.68;5.47;;;;;;;18.46;53.02;100928.06;6070933;23;20036;-66
2022/06/01 06:01:44;;;;;;;5.80;5.50;;;;;;;19.43;52.15;100975.88;6074141;23;20006;-66
2022/06/01 06:04:10;;;;;;;7.15;6.78;;;;;;;19.87;48.63;100965.91;6073240;23;20038;-66
2022/06/01 06:06:37;;;;;;;5.90;5.60;;;;;;;19.96;49.97;100982.06;6045353;23;20047;-66
2022/06/01 06:09:07;;;;;;;6.80;6.50;;;;;;;19.18;49.67;100985.09;6048123;23;20037;-66
2022/06/01 06:11:36;;;;;;;5.95;5.65;;;;;;;18.16;53.63;100971.22;6036709;23;20026;-66
2022/06/01 06:14:04;;;;;;;7.13;6.72;;;;;;;18.50;52.36;100985.31;6077124;23;20365;-66
2022/06/01 06:16:35;;;;;;;5.65;5.40;;;;;;;18.52;51.56;100978.06;6045346;23;20018;-71
2022/06/01 06:19:03;;;;;;;6.10;5.80;;;;;;;19.20;51.94;100990.28;6074866;23;20609;-69
2022/06/01 06:21:30;;;;;;;6.10;5.80;;;;;;;19.53;49.36;100986.59;6077460;23;20403;-71
2022/06/01 06:24:07;;;;;;;6.85;6.55;;;;;;;18.94;49.57;100961.38;6025403;23;20029;-70
2022/06/01 06:26:34;;;;;;;5.88;5.57;;;;;;;18.54;52.70;100989.41;6076929;23;20385;-71
2022/06/01 06:29:02;;;;;;;7.13;6.75;;;;;;;18.00;52.81;100986.69;6066172;23;20423;-71
2022/06/01 06:31:29;;;;;;;5.97;5.53;;;;;;;17.24;56.10;100994.28;6014778;23;20225;-66
2022/06/01 06:33:56;;;;;;;6.57;6.28;;;;;;;17.07;57.90;100955.78;6069408;23;20105;-65
2022/06/01 06:36:23;;;;;;;5.70;5.40;;;;;;;17.11;57.35;100957.25;6031353;23;20350;-66
2022/06/01 06:38:49;;;;;;;5.53;5.30;;;;;;;16.73;57.79;100940.56;6050659;23;20045;-65
2022/06/01 06:41:17;;;;;;;6.45;6.15;;;;;;;16.71;57.65;100912.47;6074194;23;20038;-65
2022/06/01 06:43:43;;;;;;;5.43;5.22;;;;;;;17.18;57.04;100985.00;6046557;23;20643;-66
2022/06/01 06:46:13;;;;;;;7.15;6.75;;;;;;;17.01;58.82;100983.59;6069040;23;20040;-66
2022/06/01 06:48:41;;;;;;;6.18;5.78;;;;;;;16.79;58.03;100992.25;6044457;23;20034;-66
2022/06/01 06:51:09;;;;;;;7.15;6.85;;;;;;;16.82;59.19;101009.78;6067966;23;20043;-69
2022/06/01 06:53:35;;;;;;;5.90;5.60;;;;;;;16.61;58.38;100983.84;6044290;23;20029;-66
2022/06/01 06:56:03;;;;;;;6.68;6.38;;;;;;;16.28;59.99;100956.22;6051210;23;20112;-66
2022/06/01 06:58:29;;;;;;;5.47;5.28;;;;;;;15.90;60.99;100956.31;6045372;23;20033;-65
2022/06/01 07:00:56;;;;;;;6.20;5.90;;;;;;;16.43;61.47;100983.38;6056361;23;20587;-69
2022/06/01 07:03:22;;;;;;;5.65;5.35;;;;;;;16.64;60.84;100988.94;6081130;23;20605;-65
2022/06/01 07:08:42;;;;;;;5.50;5.20;;;;;;;16.94;59.38;100988.53;6049575;23;20018;-65
2022/06/01 07:11:10;;;;;;;7.47;7.07;;;;;;;16.77;58.88;100996.00;6058033;23;20038;-66
2022/06/01 07:13:37;;;;;;;5.55;5.25;;;;;;;16.25;60.70;100937.88;6050568;23;20033;-66
2022/06/01 07:16:09;;;;;;;6.70;6.40;;;;;;;15.94;63.31;100995.69;6073824;23;20030;-65
2022/06/01 07:18:38;;;;;;;5.10;4.90;;;;;;;15.48;64.29;101009.41;6051042;23;20026;-65
2022/06/01 07:21:05;;;;;;;7.63;7.05;;;;;;;15.63;64.42;100959.03;6071322;23;20085;-66
2022/06/01 07:23:34;;;;;;;5.40;5.20;;;;;;;16.22;64.21;101030.81;6057057;23;20034;-66
2022/06/01 07:26:02;;;;;;;7.05;6.75;;;;;;;16.06;62.55;101019.63;6071752;23;20018;-65
2022/06/01 07:28:28;;;;;;;5.20;5.00;;;;;;;15.74;63.21;101014.75;6045794;23;20038;-66
2022/06/01 07:30:56;;;;;;;6.65;6.35;;;;;;;15.94;61.42;101021.31;6047402;23;20041;-66
2022/06/01 07:33:26;;;;;;;5.28;4.97;;;;;;;16.18;61.80;100999.34;6070291;23;20143;-66
2022/06/01 07:35:53;;;;;;;6.05;5.75;;;;;;;16.47;61.59;101002.56;6048323;23;20029;-64
2022/06/01 07:43:53;;;;;;;5.22;5.03;;;;;;;16.24;61.49;101026.25;6074634;23;20262;-70
2022/06/01 07:46:20;;;;;;;5.18;4.97;;;;;;;16.20;62.39;101018.66;6079669;23;20025;-71
2022/06/01 07:48:47;;;;;;;5.20;5.00;;;;;;;15.75;61.57;100943.22;6055538;23;20030;-66
2022/06/01 07:51:35;;;;;;;5.20;5.00;;;;;;;16.26;61.52;100992.56;6066604;23;20412;-67
2022/06/01 07:54:02;;;;;;;6.65;6.35;;;;;;;16.51;59.67;101019.94;6079614;23;20046;-71
2022/06/01 07:56:28;;;;;;;5.03;4.82;;;;;;;15.69;59.53;100837.75;6053592;23;20620;-71
2022/06/01 07:58:54;;;;;;;5.63;5.38;;;;;;;17.14;59.26;101018.84;6073645;23;20020;-66
2022/06/01 08:01:25;;;;;;;5.60;5.30;;;;;;;16.28;60.38;101033.03;6040551;23;20049;-70
2022/06/01 08:03:52;;;;;;;5.43;5.13;;;;;;;15.64;60.97;101003.09;6047781;23;20488;-71
2022/06/01 08:06:19;;;;;;;5.00;4.80;;;;;;;16.24;61.61;101034.19;6045221;23;20387;-69
2022/06/01 08:09:06;;;;;;;5.53;5.32;;;;;;;16.67;58.36;101001.13;6058412;23;20086;-67
2022/06/01 08:14:18;;;;;;;5.20;5.00;;;;;;;17.19;57.82;100999.94;6071034;23;20048;-69
2022/06/01 08:16:45;;;;;;;5.15;4.95;;;;;;;17.22;56.17;101009.47;6056739;23;20020;-67
2022/06/01 08:19:13;;;;;;;6.03;5.72;;;;;;;17.37;55.07;101020.75;6046994;23;20499;-67
2022/06/01 08:21:39;;;;;;;5.60;5.30;;;;;;;17.11;56.10;101040.28;6050482;23;20077;-67
2022/06/01 08:24:07;;;;;;;6.28;5.97;;;;;;;17.65;55.14;101024.78;6060287;23;20022;-71
2022/06/01 08:26:34;;;;;;;5.20;5.00;;;;;;;17.76;53.63;101027.47;6022658;23;20026;-67
2022/06/01 08:29:02;;;;;;;6.78;6.47;;;;;;;17.51;53.97;101041.75;6072988;23;20243;-67
2022/06/01 08:31:30;;;;;;;5.18;4.97;;;;;;;17.90;54.38;101037.91;6076424;23;20029;-68
2022/06/01 08:33:59;;;;;;;6.63;6.32;;;;;;;17.97;52.38;101038.25;6079403;23;20010;-71
2022/06/01 08:36:26;;;;;;;5.28;5.07;;;;;;;17.33;53.36;100964.41;6054578;23;20025;-67
2022/06/01 08:38:53;;;;;;;5.35;5.13;;;;;;;16.68;55.47;100995.72;6051760;23;20037;-67
2022/06/01 08:41:28;;;;;;;5.30;5.00;;;;;;;17.27;55.48;101002.00;6059327;23;20036;-67
2022/06/01 08:44:02;;;;;;;5.45;5.20;;;;;;;17.66;54.04;101045.91;6052707;23;20034;-72
2022/06/01 08:46:29;;;;;;;5.30;5.10;;;;;;;17.04;54.21;101051.47;6074748;23;20026;-71
2022/06/01 08:48:59;;;;;;;5.97;5.68;;;;;;;17.79;54.57;101039.66;6052211;23;20457;-71
2022/06/01 08:51:28;;;;;;;5.07;4.88;;;;;;;17.31;53.17;100984.91;6077829;23;20101;-67
2022/06/01 08:53:58;;;;;;;6.18;5.88;;;;;;;17.77;52.27;101026.50;6052000;23;20775;-67
2022/06/01 08:56:36;;;;;;;5.13;4.93;;;;;;;17.72;52.25;101039.25;6084585;23;20025;-67
2022/06/01 08:59:42;;;;;;;6.53;6.22;;;;;;;17.37;52.63;101045.44;6058144;23;20229;-67
2022/06/01 09:02:44;;;;;;;6.95;6.65;;;;;;;17.44;55.17;101038.75;6004104;23;20022;-67
2022/06/01 09:05:17;;;;;;;5.88;5.57;;;;;;;17.43;54.88;101038.84;6044338;23;20187;-66
2022/06/01 09:07:59;;;;;;;5.22;5.03;;;;;;;17.15;55.24;100998.47;6049952;23;20298;-67
2022/06/01 09:11:23;;;;;;;5.10;4.90;;;;;;;17.61;53.84;101044.56;6073343;23;20138;-67
2022/06/01 09:14:04;;;;;;;5.13;4.93;;;;;;;17.90;54.20;101047.66;5959450;23;20500;-65
2022/06/01 09:16:37;;;;;;;5.20;5.00;;;;;;;18.09;52.70;101039.09;5989561;23;20040;-71
2022/06/01 09:19:07;;;;;;;6.68;6.38;;;;;;;18.03;52.06;100997.09;6007339;23;20089;-67
2022/06/01 09:24:31;;;;;;;5.53;5.22;;;;;;;18.93;49.92;101039.50;6032793;23;20030;-65
2022/06/01 09:27:07;;;;;;;7.07;6.78;;;;;;;19.05;48.28;101006.56;6064376;23;20077;-69
2022/06/01 09:29:48;;;;;;;5.90;5.60;;;;;;;18.95;47.88;101034.06;6068863;23;20046;-72
2022/06/01 09:32:30;;;;;;;5.75;5.50;;;;;;;18.46;49.11;101033.50;6063570;23;20363;-65
2022/06/01 09:35:07;;;;;;;6.50;6.15;;;;;;;18.49;48.08;101038.59;6048146;23;20022;-64
2022/06/01 09:37:40;;;;;;;5.47;5.20;;;;;;;17.59;48.75;101015.47;6074532;23;20384;-67
2022/06/01 09:40:26;;;;;;;6.68;6.38;;;;;;;17.86;50.10;101039.09;6037238;23;20506;-72
2022/06/01 09:42:55;;;;;;;5.53;5.22;;;;;;;18.63;47.96;101038.31;6076285;23;20474;-67
2022/06/01 09:45:25;;;;;;;5.80;5.50;;;;;;;18.59;47.83;101044.84;6043973;23;20038;-66
2022/06/01 09:47:53;;;;;;;5.35;5.10;;;;;;;18.63;45.95;101022.38;6041151;23;20118;-65
2022/06/01 09:50:20;;;;;;;5.65;5.40;;;;;;;18.68;45.49;101038.81;6054484;23;20043;-66
2022/06/01 09:52:48;;;;;;;5.97;5.57;;;;;;;18.90;45.89;101037.94;6037623;23;20018;-66
2022/06/01 09:55:23;;;;;;;5.20;5.00;;;;;;;18.40;46.59;100992.34;6072269;23;20021;-66
2022/06/01 09:58:00;;;;;;;5.40;5.20;;;;;;;18.65;46.07;101036.38;6055132;23;20021;-66
2022/06/01 10:06:19;;;;;;;6.22;5.93;;;;;;;18.13;48.04;101012.16;6044585;23;20447;-71
2022/06/01 10:08:57;;;;;;;5.43;5.18;;;;;;;18.41;48.82;101038.38;6043852;23;20026;-68
2022/06/01 10:11:24;;;;;;;5.20;5.00;;;;;;;18.95;47.99;101042.88;6037155;23;20030;-66
2022/06/01 10:14:00;;;;;;;5.43;5.22;;;;;;;19.42;44.86;101043.38;6046252;23;20026;-65
2022/06/01 10:16:46;;;;;;;5.40;5.18;;;;;;;20.04;43.44;100995.56;6035118;23;20258;-66
2022/06/01 10:19:23;;;;;;;5.90;5.60;;;;;;;20.50;42.90;101044.81;6014535;23;20465;-66
2022/06/01 10:22:02;;;;;;;5.50;5.30;;;;;;;20.89;41.26;101036.91;6041654;23;20019;-66
2022/06/01 10:24:36;;;;;;;5.50;5.25;;;;;;;20.39;42.59;101013.78;6067924;23;20509;-66
2022/06/01 10:27:04;;;;;;;6.50;6.20;;;;;;;20.24;41.54;101045.28;6040638;23;20031;-65
2022/06/01 10:29:42;;;;;;;5.75;5.45;;;;;;;19.69;41.73;101037.56;6065584;23;20446;-66
2022/06/01 10:32:17;;;;;;;7.60;7.20;;;;;;;19.79;41.94;101002.19;6035701;23;20051;-66
2022/06/01 10:34:47;;;;;;;5.20;5.00;;;;;;;20.31;40.38;101040.25;6051972;23;20010;-66
2022/06/01 10:37:16;;;;;;;6.05;5.75;;;;;;;19.96;40.63;101041.50;6052696;23;20442;-66
2022/06/01 10:39:55;;;;;;;5.43;5.22;;;;;;;19.79;41.08;101036.81;6052375;23;20049;-66
2022/06/01 10:43:16;;;;;;;6.18;5.88;;;;;;;20.04;40.54;101035.50;6090126;23;20033;-71
2022/06/01 10:45:17;;;;;;;5.20;5.00;;;;;;;20.43;40.11;101001.84;6070251;23;20292;-66
2022/06/01 10:47:59;;;;;;;5.88;5.57;;;;;;;20.61;40.58;101038.56;6062979;23;20085;-70
2022/06/01 10:50:45;;;;;;;6.13;5.80;;;;;;;21.04;39.92;101040.84;6037735;23;20032;-67
2022/06/01 10:53:25;;;;;;;5.50;5.30;;;;;;;21.29;37.70;100996.75;6076793;23;20442;-66
2022/06/01 10:55:52;;;;;;;5.57;5.38;;;;;;;20.69;37.41;100865.38;6047038;23;20014;-66
2022/06/01 10:58:22;;;;;;;5.50;5.30;;;;;;;21.73;37.86;101028.31;6079978;23;20020;-70
2022/06/01 11:01:08;;;;;;;5.45;5.25;;;;;;;21.55;37.77;101036.22;6055583;23;20528;-66
2022/06/01 11:04:12;;;;;;;5.45;5.25;;;;;;;21.75;37.18;101021.00;6080001;23;20249;-66
2022/06/01 11:07:17;;;;;;;5.55;5.32;;;;;;;21.64;36.22;101039.84;6053171;23;20320;-65
2022/06/01 11:10:07;;;;;;;5.65;5.35;;;;;;;21.67;37.33;101036.91;6030371;23;20096;-68
2022/06/01 11:12:55;;;;;;;5.30;5.10;;;;;;;21.34;37.55;101033.69;6042784;23;20085;-72
2022/06/01 11:15:36;;;;;;;5.40;5.10;;;;;;;21.20;37.72;101026.94;6070583;23;20377;-66
2022/06/01 11:18:26;;;;;;;6.72;6.43;;;;;;;21.14;36.78;101037.34;6053941;23;20022;-66
2022/06/01 11:21:06;;;;;;;5.35;5.15;;;;;;;20.76;36.63;101033.66;6075909;23;20045;-66
2022/06/01 11:23:44;;;;;;;5.25;5.05;;;;;;;20.33;38.23;100961.00;6052994;23;20637;-66
2022/06/01 11:26:31;;;;;;;6.40;6.10;;;;;;;20.44;35.89;101051.50;6045410;23;20658;-65
2022/06/01 11:29:39;;;;;;;6.50;6.20;;;;;;;20.47;37.68;101040.59;6071170;23;20443;-68
2022/06/01 11:32:14;;;;;;;7.18;6.88;;;;;;;21.21;38.85;101014.44;6041455;23;20022;-65
2022/06/01 11:34:41;;;;;;;5.40;5.20;;;;;;;22.06;37.17;101024.25;6074602;23;20115;-73
2022/06/01 11:37:10;;;;;;;6.78;6.47;;;;;;;22.24;37.53;101026.19;6064262;23;20018;-66
2022/06/01 11:39:47;;;;;;;5.43;5.22;;;;;;;22.41;35.13;101013.84;6082282;23;20164;-65
2022/06/01 11:42:26;;;;;;;5.50;5.20;;;;;;;22.55;33.29;101045.44;6047368;23;20018;-69
2022/06/01 11:44:59;;;;;;;5.32;5.13;;;;;;;22.04;34.28;101038.75;6070032;23;20036;-71
2022/06/01 11:47:32;;;;;;;5.40;5.10;;;;;;;21.88;35.90;101015.31;6047511;23;20226;-69
2022/06/01 11:50:24;;;;;;;6.55;6.25;;;;;;;21.83;36.13;101029.13;6079002;23;20077;-68
2022/06/01 11:52:57;;;;;;;5.60;5.30;;;;;;;21.75;37.62;101036.16;6075172;23;20097;-69
2022/06/01 11:55:23;;;;;;;5.60;5.30;;;;;;;21.17;37.38;101045.91;6083942;23;20034;-66
2022/06/01 11:58:03;;;;;;;5.57;5.35;;;;;;;20.58;38.38;101028.13;6050236;23;20014;-65
2022/06/01 12:00:32;;;;;;;5.40;5.20;;;;;;;20.98;37.99;101033.41;6079226;23;20379;-65
2022/06/01 12:03:24;;;;;;;6.88;6.57;;;;;;;21.29;39.20;101023.44;6055616;23;20345;-65
2022/06/01 12:06:03;;;;;;;5.60;5.40;;;;;;;21.66;37.26;101021.84;6078144;23;20014;-65
2022/06/01 12:08:53;;;;;;;5.43;5.20;;;;;;;21.67;37.07;100938.06;6046441;23;20025;-68
2022/06/01 12:11:45;;;;;;;5.55;5.25;;;;;;;21.97;37.17;101029.63;6079657;23;20021;-67